sensor_id;sensor_type;location;lat;lon;timestamp;temperature;humidity
4107;DHT22;21906;50.812;7.132;2023-12-22T00:01:30;8.20;79.80
4107;DHT22;21906;50.812;7.132;2023-12-22T00:03:56;8.20;79.40
4107;DHT22;21906;50.812;7.132;2023-12-22T00:06:22;8.20;80.30
4107;DHT22;21906;50.812;7.132;2023-12-22T00:08:47;7.90;79.20
4107;DHT22;21906;50.812;7.132;2023-12-22T00:11:13;7.30;77.30
4107;DHT22;21906;50.812;7.132;2023-12-22T00:13:39;7.10;77.90
4107;DHT22;21906;50.812;7.132;2023-12-22T00:16:05;6.90;78.70
4107;DHT22;21906;50.812;7.132;2023-12-22T00:18:31;6.80;79.00
4107;DHT22;21906;50.812;7.132;2023-12-22T00:20:57;6.70;78.60
4107;DHT22;21906;50.812;7.132;2023-12-22T00:23:22;6.60;79.50
4107;DHT22;21906;50.812;7.132;2023-12-22T00:25:48;6.50;79.90
4107;DHT22;21906;50.812;7.132;2023-12-22T00:28:14;6.50;80.20
4107;DHT22;21906;50.812;7.132;2023-12-22T00:30:40;6.40;80.40
4107;DHT22;21906;50.812;7.132;2023-12-22T00:33:05;6.40;81.20
4107;DHT22;21906;50.812;7.132;2023-12-22T00:35:31;6.40;80.80
4107;DHT22;21906;50.812;7.132;2023-12-22T00:37:57;6.40;80.50
4107;DHT22;21906;50.812;7.132;2023-12-22T00:40:22;6.40;80.60
4107;DHT22;21906;50.812;7.132;2023-12-22T00:42:48;6.40;80.90
4107;DHT22;21906;50.812;7.132;2023-12-22T00:45:14;6.50;80.90
4107;DHT22;21906;50.812;7.132;2023-12-22T00:47:40;6.50;80.80
4107;DHT22;21906;50.812;7.132;2023-12-22T00:50:06;6.70;81.10
4107;DHT22;21906;50.812;7.132;2023-12-22T00:52:33;6.80;80.60
4107;DHT22;21906;50.812;7.132;2023-12-22T00:54:59;6.90;80.40
4107;DHT22;21906;50.812;7.132;2023-12-22T00:57:24;6.90;80.50
4107;DHT22;21906;50.812;7.132;2023-12-22T00:59:50;6.90;81.00
4107;DHT22;21906;50.812;7.132;2023-12-22T01:02:17;6.90;81.50
4107;DHT22;21906;50.812;7.132;2023-12-22T01:04:43;6.90;81.60
4107;DHT22;21906;50.812;7.132;2023-12-22T01:07:09;6.90;81.60
4107;DHT22;21906;50.812;7.132;2023-12-22T01:09:35;7.00;81.80
4107;DHT22;21906;50.812;7.132;2023-12-22T01:12:04;7.00;81.40
4107;DHT22;21906;50.812;7.132;2023-12-22T01:14:31;6.90;81.60
4107;DHT22;21906;50.812;7.132;2023-12-22T01:16:57;7.00;81.80
4107;DHT22;21906;50.812;7.132;2023-12-22T01:19:24;7.20;81.70
4107;DHT22;21906;50.812;7.132;2023-12-22T01:21:50;7.20;81.30
4107;DHT22;21906;50.812;7.132;2023-12-22T01:24:16;7.30;81.20
4107;DHT22;21906;50.812;7.132;2023-12-22T01:26:41;7.40;80.70
4107;DHT22;21906;50.812;7.132;2023-12-22T01:29:07;7.50;80.70
4107;DHT22;21906;50.812;7.132;2023-12-22T01:31:32;7.40;80.80
4107;DHT22;21906;50.812;7.132;2023-12-22T01:33:58;7.50;80.30
4107;DHT22;21906;50.812;7.132;2023-12-22T01:36:23;7.50;80.40
4107;DHT22;21906;50.812;7.132;2023-12-22T01:38:49;7.50;80.60
4107;DHT22;21906;50.812;7.132;2023-12-22T01:41:15;7.40;80.70
4107;DHT22;21906;50.812;7.132;2023-12-22T01:43:40;7.50;80.60
4107;DHT22;21906;50.812;7.132;2023-12-22T01:46:07;7.50;80.70
4107;DHT22;21906;50.812;7.132;2023-12-22T01:48:35;7.50;80.70
4107;DHT22;21906;50.812;7.132;2023-12-22T01:51:01;7.60;80.60
4107;DHT22;21906;50.812;7.132;2023-12-22T01:53:28;7.70;80.40
4107;DHT22;21906;50.812;7.132;2023-12-22T01:55:55;7.70;80.20
4107;DHT22;21906;50.812;7.132;2023-12-22T01:58:23;7.80;79.70
4107;DHT22;21906;50.812;7.132;2023-12-22T02:00:49;7.80;79.70
4107;DHT22;21906;50.812;7.132;2023-12-22T02:03:16;7.80;80.10
4107;DHT22;21906;50.812;7.132;2023-12-22T02:05:43;7.80;80.60
4107;DHT22;21906;50.812;7.132;2023-12-22T02:08:09;7.70;81.00
4107;DHT22;21906;50.812;7.132;2023-12-22T02:10:36;7.70;81.30
4107;DHT22;21906;50.812;7.132;2023-12-22T02:13:03;7.70;81.40
4107;DHT22;21906;50.812;7.132;2023-12-22T02:15:29;7.60;81.00
4107;DHT22;21906;50.812;7.132;2023-12-22T02:18:02;7.50;81.10
4107;DHT22;21906;50.812;7.132;2023-12-22T02:20:29;7.60;81.30
4107;DHT22;21906;50.812;7.132;2023-12-22T02:22:55;7.60;80.90
4107;DHT22;21906;50.812;7.132;2023-12-22T02:25:21;7.50;81.20
4107;DHT22;21906;50.812;7.132;2023-12-22T02:27:57;7.50;81.20
4107;DHT22;21906;50.812;7.132;2023-12-22T02:30:34;7.50;81.20
4107;DHT22;21906;50.812;7.132;2023-12-22T02:33:04;7.60;80.80
4107;DHT22;21906;50.812;7.132;2023-12-22T02:35:33;7.50;81.00
4107;DHT22;21906;50.812;7.132;2023-12-22T02:38:02;7.60;80.90
4107;DHT22;21906;50.812;7.132;2023-12-22T02:40:28;7.70;80.90
4107;DHT22;21906;50.812;7.132;2023-12-22T02:42:55;7.70;80.80
4107;DHT22;21906;50.812;7.132;2023-12-22T02:45:21;7.70;80.60
4107;DHT22;21906;50.812;7.132;2023-12-22T02:47:47;7.70;81.10
4107;DHT22;21906;50.812;7.132;2023-12-22T02:50:15;7.90;80.70
4107;DHT22;21906;50.812;7.132;2023-12-22T02:52:42;7.90;80.20
4107;DHT22;21906;50.812;7.132;2023-12-22T02:55:09;7.90;80.10
4107;DHT22;21906;50.812;7.132;2023-12-22T02:57:34;8.00;79.90
4107;DHT22;21906;50.812;7.132;2023-12-22T03:00:00;7.90;80.20
4107;DHT22;21906;50.812;7.132;2023-12-22T03:02:26;7.90;80.20
4107;DHT22;21906;50.812;7.132;2023-12-22T03:04:52;7.90;80.30
4107;DHT22;21906;50.812;7.132;2023-12-22T03:07:17;7.90;80.40
4107;DHT22;21906;50.812;7.132;2023-12-22T03:09:43;7.90;80.70
4107;DHT22;21906;50.812;7.132;2023-12-22T03:12:10;7.90;81.10
4107;DHT22;21906;50.812;7.132;2023-12-22T03:14:36;7.80;81.20
4107;DHT22;21906;50.812;7.132;2023-12-22T03:17:03;7.70;81.60
4107;DHT22;21906;50.812;7.132;2023-12-22T03:19:30;7.70;81.30
4107;DHT22;21906;50.812;7.132;2023-12-22T03:21:56;7.80;81.10
4107;DHT22;21906;50.812;7.132;2023-12-22T03:24:25;7.90;80.60
4107;DHT22;21906;50.812;7.132;2023-12-22T03:26:52;7.90;80.40
4107;DHT22;21906;50.812;7.132;2023-12-22T03:29:18;8.00;80.00
4107;DHT22;21906;50.812;7.132;2023-12-22T03:31:45;8.00;80.10
4107;DHT22;21906;50.812;7.132;2023-12-22T03:34:11;7.90;80.30
4107;DHT22;21906;50.812;7.132;2023-12-22T03:36:36;7.90;80.50
4107;DHT22;21906;50.812;7.132;2023-12-22T03:39:02;7.90;80.60
4107;DHT22;21906;50.812;7.132;2023-12-22T03:41:28;7.90;80.80
4107;DHT22;21906;50.812;7.132;2023-12-22T03:43:55;7.90;80.90
4107;DHT22;21906;50.812;7.132;2023-12-22T03:46:20;8.00;81.00
4107;DHT22;21906;50.812;7.132;2023-12-22T03:48:46;8.00;81.10
4107;DHT22;21906;50.812;7.132;2023-12-22T03:51:12;8.00;80.60
4107;DHT22;21906;50.812;7.132;2023-12-22T03:53:38;8.10;80.50
4107;DHT22;21906;50.812;7.132;2023-12-22T03:56:04;8.10;80.20
4107;DHT22;21906;50.812;7.132;2023-12-22T03:58:30;8.20;79.80
4107;DHT22;21906;50.812;7.132;2023-12-22T04:00:56;8.20;79.80
4107;DHT22;21906;50.812;7.132;2023-12-22T04:03:22;8.20;79.90
4107;DHT22;21906;50.812;7.132;2023-12-22T04:05:47;8.20;79.90
4107;DHT22;21906;50.812;7.132;2023-12-22T04:08:13;8.20;79.40
4107;DHT22;21906;50.812;7.132;2023-12-22T04:10:38;8.30;78.70
4107;DHT22;21906;50.812;7.132;2023-12-22T04:13:04;8.30;78.60
4107;DHT22;21906;50.812;7.132;2023-12-22T04:15:30;8.40;77.90
4107;DHT22;21906;50.812;7.132;2023-12-22T04:17:55;8.40;76.50
4107;DHT22;21906;50.812;7.132;2023-12-22T04:20:21;8.40;75.10
4107;DHT22;21906;50.812;7.132;2023-12-22T04:22:46;8.50;75.00
4107;DHT22;21906;50.812;7.132;2023-12-22T04:25:12;8.40;75.10
4107;DHT22;21906;50.812;7.132;2023-12-22T04:27:38;8.40;75.10
4107;DHT22;21906;50.812;7.132;2023-12-22T04:30:03;8.40;74.60
4107;DHT22;21906;50.812;7.132;2023-12-22T04:32:29;8.30;75.30
4107;DHT22;21906;50.812;7.132;2023-12-22T04:34:55;8.30;74.60
4107;DHT22;21906;50.812;7.132;2023-12-22T04:37:21;8.20;74.60
4107;DHT22;21906;50.812;7.132;2023-12-22T04:39:46;8.20;75.20
4107;DHT22;21906;50.812;7.132;2023-12-22T04:42:12;8.20;75.80
4107;DHT22;21906;50.812;7.132;2023-12-22T04:44:37;8.30;75.80
4107;DHT22;21906;50.812;7.132;2023-12-22T04:47:03;8.30;76.00
4107;DHT22;21906;50.812;7.132;2023-12-22T04:49:29;8.40;75.40
4107;DHT22;21906;50.812;7.132;2023-12-22T04:51:54;8.40;75.30
4107;DHT22;21906;50.812;7.132;2023-12-22T04:54:20;8.40;75.40
4107;DHT22;21906;50.812;7.132;2023-12-22T04:56:45;8.40;75.60
4107;DHT22;21906;50.812;7.132;2023-12-22T04:59:11;8.30;76.10
4107;DHT22;21906;50.812;7.132;2023-12-22T05:01:37;8.40;75.90
4107;DHT22;21906;50.812;7.132;2023-12-22T05:04:02;8.30;76.20
4107;DHT22;21906;50.812;7.132;2023-12-22T05:06:28;8.40;75.80
4107;DHT22;21906;50.812;7.132;2023-12-22T05:08:56;8.40;75.90
4107;DHT22;21906;50.812;7.132;2023-12-22T05:11:22;8.40;76.20
4107;DHT22;21906;50.812;7.132;2023-12-22T05:13:48;8.40;76.50
4107;DHT22;21906;50.812;7.132;2023-12-22T05:16:14;8.40;76.30
4107;DHT22;21906;50.812;7.132;2023-12-22T05:18:40;8.40;76.40
4107;DHT22;21906;50.812;7.132;2023-12-22T05:21:05;8.50;76.30
4107;DHT22;21906;50.812;7.132;2023-12-22T05:23:31;8.40;76.90
4107;DHT22;21906;50.812;7.132;2023-12-22T05:25:57;8.50;76.40
4107;DHT22;21906;50.812;7.132;2023-12-22T05:28:23;8.50;77.00
4107;DHT22;21906;50.812;7.132;2023-12-22T05:30:49;8.50;76.90
4107;DHT22;21906;50.812;7.132;2023-12-22T05:33:14;8.50;76.70
4107;DHT22;21906;50.812;7.132;2023-12-22T05:35:40;8.60;76.40
4107;DHT22;21906;50.812;7.132;2023-12-22T05:38:05;8.60;76.10
4107;DHT22;21906;50.812;7.132;2023-12-22T05:40:31;8.70;76.00
4107;DHT22;21906;50.812;7.132;2023-12-22T05:42:57;8.80;75.50
4107;DHT22;21906;50.812;7.132;2023-12-22T05:45:23;8.80;74.30
4107;DHT22;21906;50.812;7.132;2023-12-22T05:47:50;8.80;74.30
4107;DHT22;21906;50.812;7.132;2023-12-22T05:50:16;8.90;74.20
4107;DHT22;21906;50.812;7.132;2023-12-22T05:52:42;8.90;74.40
4107;DHT22;21906;50.812;7.132;2023-12-22T05:55:10;8.90;74.30
4107;DHT22;21906;50.812;7.132;2023-12-22T05:57:35;8.90;74.20
4107;DHT22;21906;50.812;7.132;2023-12-22T06:00:01;9.00;74.00
4107;DHT22;21906;50.812;7.132;2023-12-22T06:02:30;8.90;74.10
4107;DHT22;21906;50.812;7.132;2023-12-22T06:04:55;9.00;73.10
4107;DHT22;21906;50.812;7.132;2023-12-22T06:07:21;9.00;73.10
4107;DHT22;21906;50.812;7.132;2023-12-22T06:09:47;8.90;73.40
4107;DHT22;21906;50.812;7.132;2023-12-22T06:12:12;9.00;72.90
4107;DHT22;21906;50.812;7.132;2023-12-22T06:14:38;9.00;72.60
4107;DHT22;21906;50.812;7.132;2023-12-22T06:17:04;9.00;72.30
4107;DHT22;21906;50.812;7.132;2023-12-22T06:19:29;9.10;72.40
4107;DHT22;21906;50.812;7.132;2023-12-22T06:21:56;9.10;72.10
4107;DHT22;21906;50.812;7.132;2023-12-22T06:24:23;9.10;72.20
4107;DHT22;21906;50.812;7.132;2023-12-22T06:26:49;9.00;72.10
4107;DHT22;21906;50.812;7.132;2023-12-22T06:29:14;9.00;71.90
4107;DHT22;21906;50.812;7.132;2023-12-22T06:31:41;9.00;71.40
4107;DHT22;21906;50.812;7.132;2023-12-22T06:34:06;9.10;71.50
4107;DHT22;21906;50.812;7.132;2023-12-22T06:36:32;9.10;71.40
4107;DHT22;21906;50.812;7.132;2023-12-22T06:38:57;9.10;71.50
4107;DHT22;21906;50.812;7.132;2023-12-22T06:41:26;9.20;71.70
4107;DHT22;21906;50.812;7.132;2023-12-22T06:43:51;9.20;71.90
4107;DHT22;21906;50.812;7.132;2023-12-22T06:46:23;9.20;71.80
4107;DHT22;21906;50.812;7.132;2023-12-22T06:48:53;9.30;72.00
4107;DHT22;21906;50.812;7.132;2023-12-22T06:51:24;9.30;72.60
4107;DHT22;21906;50.812;7.132;2023-12-22T06:53:50;9.20;72.90
4107;DHT22;21906;50.812;7.132;2023-12-22T06:56:24;9.30;73.20
4107;DHT22;21906;50.812;7.132;2023-12-22T06:58:51;9.40;73.20
4107;DHT22;21906;50.812;7.132;2023-12-22T07:01:21;9.30;73.60
4107;DHT22;21906;50.812;7.132;2023-12-22T07:03:48;9.30;74.20
4107;DHT22;21906;50.812;7.132;2023-12-22T07:06:18;9.30;74.30
4107;DHT22;21906;50.812;7.132;2023-12-22T07:08:44;9.40;74.40
4107;DHT22;21906;50.812;7.132;2023-12-22T07:11:10;9.30;74.00
4107;DHT22;21906;50.812;7.132;2023-12-22T07:13:37;9.00;70.80
4107;DHT22;21906;50.812;7.132;2023-12-22T07:16:03;8.70;71.50
4107;DHT22;21906;50.812;7.132;2023-12-22T07:18:29;8.50;72.90
4107;DHT22;21906;50.812;7.132;2023-12-22T07:20:57;8.40;74.80
4107;DHT22;21906;50.812;7.132;2023-12-22T07:23:23;8.30;75.50
4107;DHT22;21906;50.812;7.132;2023-12-22T07:25:49;8.30;77.50
4107;DHT22;21906;50.812;7.132;2023-12-22T07:28:14;8.30;79.20
4107;DHT22;21906;50.812;7.132;2023-12-22T07:30:41;8.30;79.50
4107;DHT22;21906;50.812;7.132;2023-12-22T07:33:07;8.40;79.20
4107;DHT22;21906;50.812;7.132;2023-12-22T07:35:33;8.40;79.10
4107;DHT22;21906;50.812;7.132;2023-12-22T07:37:59;8.30;79.70
4107;DHT22;21906;50.812;7.132;2023-12-22T07:40:25;8.40;79.80
4107;DHT22;21906;50.812;7.132;2023-12-22T07:42:50;8.40;79.50
4107;DHT22;21906;50.812;7.132;2023-12-22T07:45:16;8.40;80.10
4107;DHT22;21906;50.812;7.132;2023-12-22T07:47:42;8.40;80.20
4107;DHT22;21906;50.812;7.132;2023-12-22T07:50:08;8.50;80.10
4107;DHT22;21906;50.812;7.132;2023-12-22T07:52:35;8.50;80.00
4107;DHT22;21906;50.812;7.132;2023-12-22T07:55:08;8.50;80.50
4107;DHT22;21906;50.812;7.132;2023-12-22T07:57:36;8.60;80.20
4107;DHT22;21906;50.812;7.132;2023-12-22T08:00:02;8.60;80.30
4107;DHT22;21906;50.812;7.132;2023-12-22T08:02:29;8.70;80.10
4107;DHT22;21906;50.812;7.132;2023-12-22T08:04:54;8.70;80.20
4107;DHT22;21906;50.812;7.132;2023-12-22T08:07:20;8.70;80.60
4107;DHT22;21906;50.812;7.132;2023-12-22T08:09:46;8.80;81.20
4107;DHT22;21906;50.812;7.132;2023-12-22T08:12:12;8.70;81.70
4107;DHT22;21906;50.812;7.132;2023-12-22T08:14:38;8.80;81.70
4107;DHT22;21906;50.812;7.132;2023-12-22T08:17:03;8.90;81.40
4107;DHT22;21906;50.812;7.132;2023-12-22T08:19:29;8.90;81.50
4107;DHT22;21906;50.812;7.132;2023-12-22T08:21:55;8.90;81.90
4107;DHT22;21906;50.812;7.132;2023-12-22T08:24:21;8.90;81.50
4107;DHT22;21906;50.812;7.132;2023-12-22T08:26:47;8.90;82.10
4107;DHT22;21906;50.812;7.132;2023-12-22T08:29:13;8.80;83.00
4107;DHT22;21906;50.812;7.132;2023-12-22T08:31:39;8.70;83.60
4107;DHT22;21906;50.812;7.132;2023-12-22T08:34:05;8.80;83.10
4107;DHT22;21906;50.812;7.132;2023-12-22T08:36:31;8.80;83.20
4107;DHT22;21906;50.812;7.132;2023-12-22T08:38:57;8.80;83.00
4107;DHT22;21906;50.812;7.132;2023-12-22T08:41:24;8.90;82.20
4107;DHT22;21906;50.812;7.132;2023-12-22T08:43:50;8.90;81.20
4107;DHT22;21906;50.812;7.132;2023-12-22T08:46:15;9.00;80.90
4107;DHT22;21906;50.812;7.132;2023-12-22T08:48:42;9.00;80.60
4107;DHT22;21906;50.812;7.132;2023-12-22T08:51:07;9.10;80.20
4107;DHT22;21906;50.812;7.132;2023-12-22T08:53:34;9.10;80.10
4107;DHT22;21906;50.812;7.132;2023-12-22T08:56:03;9.10;80.00
4107;DHT22;21906;50.812;7.132;2023-12-22T08:58:29;9.20;79.40
4107;DHT22;21906;50.812;7.132;2023-12-22T09:00:55;9.30;79.00
4107;DHT22;21906;50.812;7.132;2023-12-22T09:03:20;9.30;79.40
4107;DHT22;21906;50.812;7.132;2023-12-22T09:05:46;9.30;78.60
4107;DHT22;21906;50.812;7.132;2023-12-22T09:08:12;9.40;78.30
4107;DHT22;21906;50.812;7.132;2023-12-22T09:10:38;9.50;78.50
4107;DHT22;21906;50.812;7.132;2023-12-22T09:13:04;9.60;78.20
4107;DHT22;21906;50.812;7.132;2023-12-22T09:15:30;9.50;78.00
4107;DHT22;21906;50.812;7.132;2023-12-22T09:17:55;9.60;77.90
4107;DHT22;21906;50.812;7.132;2023-12-22T09:20:22;9.60;78.00
4107;DHT22;21906;50.812;7.132;2023-12-22T09:22:47;9.70;78.20
4107;DHT22;21906;50.812;7.132;2023-12-22T09:25:13;9.70;77.90
4107;DHT22;21906;50.812;7.132;2023-12-22T09:27:39;9.70;77.60
4107;DHT22;21906;50.812;7.132;2023-12-22T09:30:05;9.70;77.70
4107;DHT22;21906;50.812;7.132;2023-12-22T09:32:32;9.80;76.70
4107;DHT22;21906;50.812;7.132;2023-12-22T09:34:58;9.80;76.90
4107;DHT22;21906;50.812;7.132;2023-12-22T09:37:27;9.80;76.80
4107;DHT22;21906;50.812;7.132;2023-12-22T09:39:53;9.80;77.10
4107;DHT22;21906;50.812;7.132;2023-12-22T09:42:23;9.80;77.10
4107;DHT22;21906;50.812;7.132;2023-12-22T09:44:53;9.80;76.90
4107;DHT22;21906;50.812;7.132;2023-12-22T09:47:22;9.80;76.70
4107;DHT22;21906;50.812;7.132;2023-12-22T09:49:48;9.80;77.00
4107;DHT22;21906;50.812;7.132;2023-12-22T09:52:16;9.80;77.10
4107;DHT22;21906;50.812;7.132;2023-12-22T09:54:43;9.80;77.40
4107;DHT22;21906;50.812;7.132;2023-12-22T09:57:10;9.80;77.30
4107;DHT22;21906;50.812;7.132;2023-12-22T09:59:37;9.80;77.50
4107;DHT22;21906;50.812;7.132;2023-12-22T10:02:04;9.80;77.50
4107;DHT22;21906;50.812;7.132;2023-12-22T10:04:32;9.90;77.40
4107;DHT22;21906;50.812;7.132;2023-12-22T10:06:58;9.90;77.50
4107;DHT22;21906;50.812;7.132;2023-12-22T10:09:27;9.90;77.50
4107;DHT22;21906;50.812;7.132;2023-12-22T10:11:54;10.00;77.30
4107;DHT22;21906;50.812;7.132;2023-12-22T10:14:21;10.00;77.40
4107;DHT22;21906;50.812;7.132;2023-12-22T10:16:52;10.00;77.60
4107;DHT22;21906;50.812;7.132;2023-12-22T10:19:19;10.10;77.20
4107;DHT22;21906;50.812;7.132;2023-12-22T10:21:45;10.10;77.20
4107;DHT22;21906;50.812;7.132;2023-12-22T10:27:10;10.10;77.60
4107;DHT22;21906;50.812;7.132;2023-12-22T10:29:37;10.10;77.20
4107;DHT22;21906;50.812;7.132;2023-12-22T10:32:04;10.10;77.50
4107;DHT22;21906;50.812;7.132;2023-12-22T10:34:33;10.10;77.60
4107;DHT22;21906;50.812;7.132;2023-12-22T10:36:59;10.20;77.80
4107;DHT22;21906;50.812;7.132;2023-12-22T10:39:30;10.10;78.60
4107;DHT22;21906;50.812;7.132;2023-12-22T10:41:59;10.10;79.70
4107;DHT22;21906;50.812;7.132;2023-12-22T10:44:26;10.10;80.20
4107;DHT22;21906;50.812;7.132;2023-12-22T10:46:52;10.20;80.70
4107;DHT22;21906;50.812;7.132;2023-12-22T10:49:19;10.20;80.40
4107;DHT22;21906;50.812;7.132;2023-12-22T10:51:45;10.20;80.30
4107;DHT22;21906;50.812;7.132;2023-12-22T10:54:11;10.20;80.30
4107;DHT22;21906;50.812;7.132;2023-12-22T10:56:37;10.10;80.20
4107;DHT22;21906;50.812;7.132;2023-12-22T10:59:04;10.00;80.70
4107;DHT22;21906;50.812;7.132;2023-12-22T11:01:32;10.00;81.20
4107;DHT22;21906;50.812;7.132;2023-12-22T11:04:02;9.90;82.00
4107;DHT22;21906;50.812;7.132;2023-12-22T11:06:34;9.90;82.80
4107;DHT22;21906;50.812;7.132;2023-12-22T11:09:05;9.90;82.60
4107;DHT22;21906;50.812;7.132;2023-12-22T11:11:34;9.90;83.00
4107;DHT22;21906;50.812;7.132;2023-12-22T11:14:01;9.90;82.90
4107;DHT22;21906;50.812;7.132;2023-12-22T11:16:31;9.90;82.90
4107;DHT22;21906;50.812;7.132;2023-12-22T11:18:57;9.90;82.60
4107;DHT22;21906;50.812;7.132;2023-12-22T11:21:25;9.90;83.00
4107;DHT22;21906;50.812;7.132;2023-12-22T11:23:52;9.90;83.10
4107;DHT22;21906;50.812;7.132;2023-12-22T11:26:19;9.90;83.10
4107;DHT22;21906;50.812;7.132;2023-12-22T11:28:49;9.90;83.30
4107;DHT22;21906;50.812;7.132;2023-12-22T11:31:19;10.00;83.10
4107;DHT22;21906;50.812;7.132;2023-12-22T11:33:49;10.10;82.90
4107;DHT22;21906;50.812;7.132;2023-12-22T11:36:16;10.10;82.80
4107;DHT22;21906;50.812;7.132;2023-12-22T11:38:45;10.20;82.90
4107;DHT22;21906;50.812;7.132;2023-12-22T11:41:28;10.20;82.60
4107;DHT22;21906;50.812;7.132;2023-12-22T11:43:56;10.30;82.50
4107;DHT22;21906;50.812;7.132;2023-12-22T11:46:22;10.30;82.20
4107;DHT22;21906;50.812;7.132;2023-12-22T11:48:52;10.30;82.20
4107;DHT22;21906;50.812;7.132;2023-12-22T11:51:18;10.30;82.40
4107;DHT22;21906;50.812;7.132;2023-12-22T11:53:44;10.20;82.50
4107;DHT22;21906;50.812;7.132;2023-12-22T11:56:11;10.30;82.60
4107;DHT22;21906;50.812;7.132;2023-12-22T12:01:13;10.20;84.60
4107;DHT22;21906;50.812;7.132;2023-12-22T12:06:14;10.20;85.10
4107;DHT22;21906;50.812;7.132;2023-12-22T12:08:40;10.20;85.30
4107;DHT22;21906;50.812;7.132;2023-12-22T12:11:07;10.20;85.10
4107;DHT22;21906;50.812;7.132;2023-12-22T12:13:33;10.20;84.60
4107;DHT22;21906;50.812;7.132;2023-12-22T12:16:00;10.30;84.60
4107;DHT22;21906;50.812;7.132;2023-12-22T12:18:30;10.40;84.20
4107;DHT22;21906;50.812;7.132;2023-12-22T12:20:58;10.40;83.70
4107;DHT22;21906;50.812;7.132;2023-12-22T12:23:24;10.40;83.70
4107;DHT22;21906;50.812;7.132;2023-12-22T12:25:50;10.40;83.90
4107;DHT22;21906;50.812;7.132;2023-12-22T12:28:16;10.40;83.80
4107;DHT22;21906;50.812;7.132;2023-12-22T12:30:45;10.50;83.50
4107;DHT22;21906;50.812;7.132;2023-12-22T12:33:14;10.50;82.90
4107;DHT22;21906;50.812;7.132;2023-12-22T12:35:41;10.50;82.50
4107;DHT22;21906;50.812;7.132;2023-12-22T12:38:10;10.50;82.20
4107;DHT22;21906;50.812;7.132;2023-12-22T12:40:39;10.60;82.20
4107;DHT22;21906;50.812;7.132;2023-12-22T12:43:05;10.60;81.50
4107;DHT22;21906;50.812;7.132;2023-12-22T12:45:31;10.60;81.40
4107;DHT22;21906;50.812;7.132;2023-12-22T12:48:03;10.70;81.60
4107;DHT22;21906;50.812;7.132;2023-12-22T12:50:29;10.80;81.10
4107;DHT22;21906;50.812;7.132;2023-12-22T12:52:57;10.80;80.80
4107;DHT22;21906;50.812;7.132;2023-12-22T12:55:24;10.90;80.40
4107;DHT22;21906;50.812;7.132;2023-12-22T12:57:51;10.90;80.50
4107;DHT22;21906;50.812;7.132;2023-12-22T13:00:24;10.90;80.80
4107;DHT22;21906;50.812;7.132;2023-12-22T13:02:51;10.90;80.00
4107;DHT22;21906;50.812;7.132;2023-12-22T13:05:23;10.90;80.20
4107;DHT22;21906;50.812;7.132;2023-12-22T13:07:49;11.00;79.80
4107;DHT22;21906;50.812;7.132;2023-12-22T13:10:25;11.00;79.90
4107;DHT22;21906;50.812;7.132;2023-12-22T13:12:57;11.00;79.70
4107;DHT22;21906;50.812;7.132;2023-12-22T13:15:23;11.00;79.40
4107;DHT22;21906;50.812;7.132;2023-12-22T13:17:48;11.10;79.10
4107;DHT22;21906;50.812;7.132;2023-12-22T13:20:14;11.10;79.60
4107;DHT22;21906;50.812;7.132;2023-12-22T13:22:41;11.10;79.50
4107;DHT22;21906;50.812;7.132;2023-12-22T13:25:07;11.00;80.00
4107;DHT22;21906;50.812;7.132;2023-12-22T13:27:47;11.00;79.70
4107;DHT22;21906;50.812;7.132;2023-12-22T13:30:14;10.90;79.50
4107;DHT22;21906;50.812;7.132;2023-12-22T13:32:40;10.90;79.80
4107;DHT22;21906;50.812;7.132;2023-12-22T13:35:06;10.90;79.80
4107;DHT22;21906;50.812;7.132;2023-12-22T13:37:32;10.90;80.50
4107;DHT22;21906;50.812;7.132;2023-12-22T13:39:58;10.90;80.60
4107;DHT22;21906;50.812;7.132;2023-12-22T13:42:25;10.90;80.90
4107;DHT22;21906;50.812;7.132;2023-12-22T13:44:51;10.80;80.90
4107;DHT22;21906;50.812;7.132;2023-12-22T13:47:21;10.80;81.00
4107;DHT22;21906;50.812;7.132;2023-12-22T13:49:48;10.80;80.90
4107;DHT22;21906;50.812;7.132;2023-12-22T13:52:27;10.80;81.00
4107;DHT22;21906;50.812;7.132;2023-12-22T13:54:53;10.80;81.10
4107;DHT22;21906;50.812;7.132;2023-12-22T13:57:22;10.80;81.00
4107;DHT22;21906;50.812;7.132;2023-12-22T13:59:48;10.90;80.50
4107;DHT22;21906;50.812;7.132;2023-12-22T14:02:14;10.90;80.50
4107;DHT22;21906;50.812;7.132;2023-12-22T14:04:40;10.90;80.30
4107;DHT22;21906;50.812;7.132;2023-12-22T14:07:06;10.90;80.20
4107;DHT22;21906;50.812;7.132;2023-12-22T14:09:32;10.90;80.20
4107;DHT22;21906;50.812;7.132;2023-12-22T14:11:59;10.90;80.10
4107;DHT22;21906;50.812;7.132;2023-12-22T14:14:25;10.90;80.20
4107;DHT22;21906;50.812;7.132;2023-12-22T14:16:51;10.90;80.20
4107;DHT22;21906;50.812;7.132;2023-12-22T14:19:17;10.90;80.30
4107;DHT22;21906;50.812;7.132;2023-12-22T14:21:42;11.00;80.20
4107;DHT22;21906;50.812;7.132;2023-12-22T14:24:08;11.00;79.90
4107;DHT22;21906;50.812;7.132;2023-12-22T14:26:55;11.00;79.40
4107;DHT22;21906;50.812;7.132;2023-12-22T14:29:21;11.00;79.60
4107;DHT22;21906;50.812;7.132;2023-12-22T14:31:49;11.00;79.90
4107;DHT22;21906;50.812;7.132;2023-12-22T14:34:15;10.90;80.70
4107;DHT22;21906;50.812;7.132;2023-12-22T14:36:41;10.90;80.80
4107;DHT22;21906;50.812;7.132;2023-12-22T14:39:07;10.80;80.90
4107;DHT22;21906;50.812;7.132;2023-12-22T14:41:35;10.90;80.70
4107;DHT22;21906;50.812;7.132;2023-12-22T14:44:01;10.90;80.20
4107;DHT22;21906;50.812;7.132;2023-12-22T14:46:27;10.90;79.90
4107;DHT22;21906;50.812;7.132;2023-12-22T14:48:53;10.90;79.90
4107;DHT22;21906;50.812;7.132;2023-12-22T14:51:19;10.80;80.20
4107;DHT22;21906;50.812;7.132;2023-12-22T14:53:45;10.90;80.20
4107;DHT22;21906;50.812;7.132;2023-12-22T14:56:10;10.90;80.30
4107;DHT22;21906;50.812;7.132;2023-12-22T14:58:36;10.90;80.20
4107;DHT22;21906;50.812;7.132;2023-12-22T15:01:02;10.90;80.40
4107;DHT22;21906;50.812;7.132;2023-12-22T15:03:28;10.90;80.00
4107;DHT22;21906;50.812;7.132;2023-12-22T15:05:53;10.80;79.50
4107;DHT22;21906;50.812;7.132;2023-12-22T15:08:19;10.90;79.30
4107;DHT22;21906;50.812;7.132;2023-12-22T15:10:46;10.90;79.20
4107;DHT22;21906;50.812;7.132;2023-12-22T15:13:11;10.90;79.30
4107;DHT22;21906;50.812;7.132;2023-12-22T15:15:37;10.90;79.50
4107;DHT22;21906;50.812;7.132;2023-12-22T15:18:03;10.90;79.60
4107;DHT22;21906;50.812;7.132;2023-12-22T15:20:29;10.80;79.80
4107;DHT22;21906;50.812;7.132;2023-12-22T15:22:55;10.90;79.90
4107;DHT22;21906;50.812;7.132;2023-12-22T15:25:20;10.90;80.30
4107;DHT22;21906;50.812;7.132;2023-12-22T15:27:47;10.80;80.60
4107;DHT22;21906;50.812;7.132;2023-12-22T15:30:13;10.80;80.80
4107;DHT22;21906;50.812;7.132;2023-12-22T15:32:38;10.80;80.80
4107;DHT22;21906;50.812;7.132;2023-12-22T15:35:05;10.80;80.70
4107;DHT22;21906;50.812;7.132;2023-12-22T15:37:31;10.90;80.30
4107;DHT22;21906;50.812;7.132;2023-12-22T15:39:56;10.90;80.40
4107;DHT22;21906;50.812;7.132;2023-12-22T15:42:22;10.90;80.50
4107;DHT22;21906;50.812;7.132;2023-12-22T15:44:48;10.80;80.90
4107;DHT22;21906;50.812;7.132;2023-12-22T15:47:14;10.80;81.10
4107;DHT22;21906;50.812;7.132;2023-12-22T15:49:40;10.80;81.30
4107;DHT22;21906;50.812;7.132;2023-12-22T15:52:05;10.70;81.90
4107;DHT22;21906;50.812;7.132;2023-12-22T15:54:31;10.70;82.00
4107;DHT22;21906;50.812;7.132;2023-12-22T15:56:57;10.70;81.90
4107;DHT22;21906;50.812;7.132;2023-12-22T15:59:23;10.70;81.80
4107;DHT22;21906;50.812;7.132;2023-12-22T16:01:51;10.70;81.70